createdAt,value
2019-02-17T00:04:55.112Z,40.9
2019-02-17T00:14:54.324Z,38.8
2019-02-17T00:24:53.529Z,41.8
2019-02-17T00:34:52.735Z,32.8
2019-02-17T00:44:51.944Z,29.6
2019-02-17T00:54:51.199Z,34.2
2019-02-17T01:04:50.360Z,38.1
2019-02-17T01:14:49.571Z,37.6
2019-02-17T01:24:48.783Z,40.6
2019-02-17T01:34:47.997Z,34
2019-02-17T01:44:47.209Z,30.7
2019-02-17T01:54:46.419Z,29.1
2019-02-17T02:04:45.653Z,28.8
2019-02-17T02:14:44.838Z,37
2019-02-17T02:24:44.051Z,38.5
2019-02-17T02:34:43.257Z,38
2019-02-17T02:44:42.465Z,37.2
2019-02-17T02:54:41.670Z,38.3
2019-02-17T03:04:40.875Z,41.7
2019-02-17T03:14:40.082Z,35.4
2019-02-17T03:24:39.288Z,31.8
2019-02-17T03:34:38.493Z,29.9
2019-02-17T03:44:37.700Z,35.6
2019-02-17T03:54:36.909Z,42.8
2019-02-17T04:04:36.114Z,39.4
2019-02-17T04:14:35.318Z,41.6
2019-02-17T04:24:34.522Z,40.8
2019-02-17T04:34:33.727Z,30.9
2019-02-17T04:44:32.931Z,33.8
2019-02-17T04:54:32.136Z,37.6
2019-02-17T05:04:31.343Z,41.3
2019-02-17T05:14:30.545Z,40.9
2019-02-17T05:24:29.886Z,41
2019-02-17T05:34:28.955Z,40.6
2019-02-17T05:44:28.160Z,40.5
2019-02-17T05:54:27.376Z,40.4
2019-02-17T06:04:26.568Z,40.6
2019-02-17T06:22:33.200Z,28.6
2019-02-17T06:32:32.400Z,25.6
2019-02-17T06:42:31.603Z,27.4
2019-02-17T06:52:30.810Z,37.6
2019-02-17T07:02:30.012Z,38
2019-02-17T07:12:29.232Z,26.4
2019-02-17T07:22:28.519Z,24.8
2019-02-17T07:32:27.815Z,23.2
2019-02-17T07:42:27.112Z,23.9
2019-02-17T07:52:26.400Z,27.1
2019-02-17T08:02:25.690Z,21.1
2019-02-17T08:12:24.990Z,21.9
2019-02-17T08:22:24.149Z,23
2019-02-17T08:32:23.356Z,24.6
2019-02-17T08:42:22.565Z,22.3
2019-02-17T08:52:21.777Z,22.6
2019-02-17T09:02:20.988Z,23.6
2019-02-17T09:12:20.200Z,25.6
2019-02-17T09:22:19.411Z,23.9
2019-02-17T09:32:18.620Z,22.7
2019-02-17T09:42:17.882Z,26.9
2019-02-17T09:52:17.046Z,22.8
2019-02-17T10:02:25.925Z,28.1
2019-02-17T10:12:15.460Z,23.3
2019-02-17T10:22:14.670Z,27.2
2019-02-17T10:32:13.881Z,24.6
2019-02-17T10:42:13.139Z,24.5
2019-02-17T10:52:12.304Z,25.9
2019-02-17T11:02:11.516Z,25.1
2019-02-17T11:12:10.728Z,24.9
2019-02-17T11:22:09.941Z,26.4
2019-02-17T11:32:09.201Z,26.8
2019-02-17T11:42:08.362Z,27.4
2019-02-17T11:52:07.574Z,31.9
2019-02-17T12:02:06.790Z,26.3
2019-02-17T12:12:05.997Z,27.9
2019-02-17T12:22:05.204Z,27.6
2019-02-17T12:32:04.413Z,28.9
2019-02-17T12:42:03.619Z,29.8
2019-02-17T12:52:02.828Z,30.4
2019-02-17T13:02:02.039Z,28.4
2019-02-17T13:12:01.240Z,26.6
2019-02-17T13:22:00.445Z,32.3
2019-02-17T13:31:59.650Z,25.8
2019-02-17T13:41:58.859Z,30
2019-02-17T13:51:58.061Z,27.4
2019-02-17T14:08:11.872Z,26.6
2019-02-17T14:18:11.083Z,26.1
2019-02-17T14:28:10.300Z,32.6
2019-02-17T14:38:09.501Z,29.7
2019-02-17T14:48:08.713Z,27.4
2019-02-17T14:58:07.922Z,27.1
2019-02-17T15:08:07.205Z,27.3
2019-02-17T15:18:06.495Z,29.2
2019-02-17T15:28:05.798Z,38.3
2019-02-17T15:38:05.091Z,30.4
2019-02-17T15:48:04.390Z,29.2
2019-02-17T15:58:03.644Z,28.3
2019-02-17T16:13:15.763Z,33.4
2019-02-17T16:23:14.981Z,37.9
2019-02-17T16:33:14.185Z,39.1
2019-02-17T16:43:13.505Z,29.4
2019-02-17T16:53:12.600Z,30.1
2019-02-17T17:03:11.819Z,27.5
2019-02-17T17:13:11.111Z,25.9
2019-02-17T17:23:10.403Z,35.1
2019-02-17T17:33:09.697Z,40.1
2019-02-17T17:43:08.999Z,30.7
2019-02-17T17:53:08.294Z,30.7
2019-02-17T18:03:07.559Z,29.6
2019-02-17T18:13:06.773Z,29.8
2019-02-17T18:23:05.991Z,28.6
2019-02-17T18:33:05.253Z,26.4
2019-02-17T18:51:55.489Z,37.1
2019-02-17T19:01:54.699Z,37.1
2019-02-17T19:11:53.963Z,37.9
2019-02-17T19:21:53.130Z,38.7
2019-02-17T19:31:52.338Z,31.2
2019-02-17T19:41:51.567Z,29.9
2019-02-17T19:51:50.880Z,26.8
2019-02-17T20:01:50.149Z,26
2019-02-17T20:11:49.442Z,36.7
2019-02-17T20:21:48.785Z,42
2019-02-17T20:31:48.024Z,38.6
2019-02-17T20:41:47.326Z,41.3
2019-02-17T20:51:46.484Z,31.6
2019-02-17T21:01:45.695Z,31.2
2019-02-17T21:11:44.902Z,29.9
2019-02-17T21:21:44.108Z,29.5
2019-02-17T21:31:43.315Z,37.8
2019-02-17T21:41:42.572Z,37.9
2019-02-17T21:51:41.729Z,37.8
2019-02-17T22:01:40.939Z,38.9
2019-02-17T22:11:40.197Z,40.3
2019-02-17T22:21:39.356Z,29.3
2019-02-17T22:31:38.559Z,29.8
2019-02-17T22:41:37.765Z,29.7
2019-02-17T22:51:37.022Z,37.5
2019-02-17T23:01:36.176Z,38.4
2019-02-17T23:11:35.383Z,37.7
2019-02-17T23:21:34.588Z,38.4
2019-02-17T23:31:33.795Z,39.7
2019-02-17T23:41:33.000Z,39.5
2019-02-17T23:51:32.206Z,38.4
